Time;durP1;ratioP1;P1;durP2;ratioP2;P2;SDS_P1;SDS_P2;PMS_P1;PMS_P2;Temp;Humidity;BMP_temperature;BMP_pressure;BME280_temperature;BME280_humidity;BME280_pressure;Samples;Min_cycle;Max_cycle;Signal;HPM_P1;HPM_P2
2021/04/03 00:00:37;;;;;;;7.85;4.47;;;;;;;;;;5109420;28;20036;-79
2021/04/03 00:03:28;;;;;;;9.13;5.20;;;;;;;;;;5130891;27;20308;-79
2021/04/03 00:07:39;;;;;;;7.93;4.18;;;;;;;;;;5069197;27;20465;-76
2021/04/03 00:10:10;;;;;;;10.93;6.38;;;;;;;;;;5069813;28;20032;-75
2021/04/03 00:12:36;;;;;;;12.35;6.90;;;;;;;;;;5069747;28;20048;-76
2021/04/03 00:15:03;;;;;;;9.15;4.80;;;;;;;;;;5069604;28;20032;-80
2021/04/03 00:21:21;;;;;;;8.25;4.38;;;;;;;;;;5118100;27;1044216;-79
2021/04/03 00:24:19;;;;;;;11.52;5.00;;;;;;;;;;5070380;28;20717;-79
2021/04/03 00:26:45;;;;;;;7.45;4.30;;;;;;;;;;5070173;28;20504;-80
2021/04/03 00:29:12;;;;;;;6.88;4.10;;;;;;;;;;5069768;28;20031;-80
2021/04/03 00:31:38;;;;;;;6.95;3.50;;;;;;;;;;5069873;28;20027;-78
2021/04/03 00:34:04;;;;;;;8.45;3.80;;;;;;;;;;5069689;28;20431;-77
2021/04/03 00:36:30;;;;;;;4.80;3.03;;;;;;;;;;5069432;28;20477;-77
2021/04/03 00:38:57;;;;;;;6.70;3.58;;;;;;;;;;5069611;28;20021;-76
2021/04/03 00:41:57;;;;;;;5.63;3.53;;;;;;;;;;5069828;28;20383;-77
2021/04/03 00:44:23;;;;;;;8.25;4.43;;;;;;;;;;5069463;28;20029;-79
2021/04/03 00:46:49;;;;;;;7.47;3.85;;;;;;;;;;5069671;28;20376;-79
2021/04/03 00:49:15;;;;;;;8.38;4.88;;;;;;;;;;5069590;28;20032;-79
2021/04/03 00:51:42;;;;;;;7.25;4.20;;;;;;;;;;5068043;28;20469;-79
2021/04/03 00:56:09;;;;;;;8.93;5.32;;;;;;;;;;5069949;28;20387;-79
2021/04/03 00:58:36;;;;;;;8.95;4.20;;;;;;;;;;5069465;28;20029;-79
2021/04/03 01:02:39;;;;;;;7.97;4.85;;;;;;;;;;5110308;27;20310;-78
2021/04/03 01:05:41;;;;;;;9.65;5.45;;;;;;;;;;5109863;28;20032;-76
2021/04/03 01:08:07;;;;;;;9.23;4.85;;;;;;;;;;5027507;28;20080;-76
2021/04/03 01:10:37;;;;;;;8.85;4.90;;;;;;;;;;5093499;28;20067;-78
2021/04/03 01:13:32;;;;;;;6.40;3.38;;;;;;;;;;5069897;28;20725;-75
2021/04/03 01:16:16;;;;;;;6.55;3.92;;;;;;;;;;5068711;28;20036;-78
2021/04/03 01:18:53;;;;;;;10.25;4.63;;;;;;;;;;5069543;28;20021;-79
2021/04/03 01:21:56;;;;;;;9.95;5.68;;;;;;;;;;5069787;28;20725;-75
2021/04/03 01:24:49;;;;;;;9.20;4.50;;;;;;;;;;5069753;28;20388;-76
2021/04/03 01:29:28;;;;;;;13.38;5.35;;;;;;;;;;5089952;27;20387;-77
2021/04/03 01:33:57;;;;;;;7.18;4.20;;;;;;;;;;5069643;28;20388;-79
2021/04/03 01:36:24;;;;;;;7.93;4.43;;;;;;;;;;5069881;28;20548;-79
2021/04/03 01:39:04;;;;;;;9.77;5.53;;;;;;;;;;5069357;28;20535;-79
2021/04/03 01:42:13;;;;;;;8.55;4.65;;;;;;;;;;5110315;27;20357;-76
2021/04/03 01:44:45;;;;;;;6.30;4.00;;;;;;;;;;5110394;28;20077;-76
2021/04/03 01:47:12;;;;;;;8.43;5.25;;;;;;;;;;5108574;28;20483;-77
2021/04/03 01:49:38;;;;;;;7.70;4.40;;;;;;;;;;5110224;28;20022;-77
2021/04/03 01:52:05;;;;;;;7.15;4.63;;;;;;;;;;5108910;28;20110;-78
2021/04/03 01:54:31;;;;;;;7.05;4.25;;;;;;;;;;5109923;28;20031;-78
2021/04/03 01:56:59;;;;;;;8.13;4.22;;;;;;;;;;5110186;28;20030;-77
2021/04/03 02:00:25;;;;;;;10.93;5.82;;;;;;;;;;5069353;27;20387;-78
2021/04/03 02:02:52;;;;;;;12.05;5.75;;;;;;;;;;5069746;28;20025;-79
2021/04/03 02:07:41;;;;;;;10.02;4.82;;;;;;;;;;5069356;28;20437;-76
2021/04/03 02:10:08;;;;;;;11.43;5.85;;;;;;;;;;5069669;28;20033;-76
2021/04/03 02:12:35;;;;;;;8.68;5.70;;;;;;;;;;5069851;28;20036;-76
2021/04/03 02:15:03;;;;;;;9.85;5.72;;;;;;;;;;5069505;28;20024;-76
2021/04/03 02:17:29;;;;;;;8.90;5.20;;;;;;;;;;5069654;28;20025;-79
2021/04/03 02:21:09;;;;;;;8.75;4.82;;;;;;;;;;5089551;27;20387;-76
2021/04/03 02:23:36;;;;;;;7.75;4.40;;;;;;;;;;5090027;28;20107;-76
2021/04/03 02:27:03;;;;;;;9.25;5.05;;;;;;;;;;5069734;28;20740;-76
2021/04/03 02:29:29;;;;;;;9.00;5.50;;;;;;;;;;5069437;28;20256;-79
2021/04/03 02:31:55;;;;;;;8.13;4.72;;;;;;;;;;5069786;28;20027;-79
2021/04/03 02:34:21;;;;;;;8.68;4.43;;;;;;;;;;5069968;28;20055;-79
2021/04/03 02:36:47;;;;;;;9.48;5.60;;;;;;;;;;5069624;28;20021;-79
2021/04/03 02:39:14;;;;;;;12.23;6.80;;;;;;;;;;5069762;28;20070;-76
2021/04/03 02:41:47;;;;;;;10.70;5.40;;;;;;;;;;5068278;28;20366;-76
2021/04/03 02:44:19;;;;;;;11.07;6.22;;;;;;;;;;5070246;28;20079;-76
2021/04/03 02:46:51;;;;;;;12.00;6.38;;;;;;;;;;5071549;28;20540;-76
2021/04/03 02:57:51;;;;;;;10.57;5.32;;;;;;;;;;5069608;28;20392;-76
2021/04/03 03:03:31;;;;;;;18.20;7.10;;;;;;;;;;5069423;28;20388;-78
2021/04/03 03:05:58;;;;;;;10.38;6.20;;;;;;;;;;5069697;28;20028;-78
2021/04/03 03:08:26;;;;;;;11.55;5.75;;;;;;;;;;5069796;28;20021;-78
2021/04/03 03:14:45;;;;;;;14.43;6.82;;;;;;;;;;5110501;27;20446;-78
2021/04/03 03:18:11;;;;;;;8.43;5.15;;;;;;;;;;5069591;28;20388;-75
2021/04/03 03:23:08;;;;;;;9.98;5.95;;;;;;;;;;5069603;28;20441;-76
2021/04/03 03:25:34;;;;;;;9.68;5.43;;;;;;;;;;5068135;28;20032;-79
2021/04/03 03:28:01;;;;;;;10.32;6.25;;;;;;;;;;5069697;28;20143;-78
2021/04/03 03:30:28;;;;;;;9.27;5.68;;;;;;;;;;5069621;28;20035;-79
2021/04/03 03:32:54;;;;;;;12.80;6.32;;;;;;;;;;5069309;28;20103;-79
2021/04/03 03:35:21;;;;;;;10.82;6.00;;;;;;;;;;5069783;28;20025;-78
2021/04/03 03:37:48;;;;;;;11.48;6.82;;;;;;;;;;5069562;28;20021;-78
2021/04/03 03:42:48;;;;;;;11.18;6.30;;;;;;;;;;5112104;27;20402;-79
2021/04/03 03:45:15;;;;;;;13.25;6.60;;;;;;;;;;5110390;28;20036;-76
2021/04/03 03:47:41;;;;;;;10.30;5.82;;;;;;;;;;5110149;28;20024;-76
2021/04/03 03:50:08;;;;;;;11.77;6.93;;;;;;;;;;5110299;28;20023;-77
2021/04/03 03:52:34;;;;;;;9.65;5.30;;;;;;;;;;5109806;28;20024;-77
2021/04/03 03:56:19;;;;;;;15.73;7.07;;;;;;;;;;5069938;27;20794;-79
2021/04/03 03:59:48;;;;;;;15.10;7.70;;;;;;;;;;5069639;28;20379;-79
2021/04/03 04:02:14;;;;;;;10.13;6.40;;;;;;;;;;5070078;28;20488;-79
2021/04/03 04:04:41;;;;;;;12.77;7.82;;;;;;;;;;5070123;28;20036;-79
2021/04/03 04:07:07;;;;;;;12.82;6.80;;;;;;;;;;5069829;28;20484;-78
2021/04/03 04:10:09;;;;;;;10.38;5.57;;;;;;;;;;5110647;27;20316;-79
2021/04/03 04:12:35;;;;;;;12.57;6.50;;;;;;;;;;5110416;28;20084;-78
2021/04/03 04:15:01;;;;;;;11.32;6.75;;;;;;;;;;5110095;28;20069;-80
2021/04/03 04:17:27;;;;;;;11.35;6.63;;;;;;;;;;5110550;28;20434;-79
2021/04/03 04:19:54;;;;;;;14.48;6.70;;;;;;;;;;5110436;28;20058;-79
2021/04/03 04:22:20;;;;;;;14.20;7.82;;;;;;;;;;5109995;28;20475;-77
2021/04/03 04:25:19;;;;;;;13.18;8.00;;;;;;;;;;5069965;28;20384;-76
2021/04/03 04:27:45;;;;;;;22.38;15.50;;;;;;;;;;5069547;28;20033;-77
2021/04/03 04:30:39;;;;;;;25.42;18.15;;;;;;;;;;5131112;27;20315;-77
2021/04/03 04:33:06;;;;;;;16.52;10.50;;;;;;;;;;5110521;28;20024;-77
2021/04/03 04:35:32;;;;;;;9.88;6.40;;;;;;;;;;5110095;28;20028;-79
2021/04/03 04:37:58;;;;;;;14.07;6.38;;;;;;;;;;5110360;28;20348;-77
2021/04/03 04:40:24;;;;;;;10.90;6.97;;;;;;;;;;5110208;28;20031;-77
2021/04/03 04:42:52;;;;;;;12.27;6.28;;;;;;;;;;5109683;28;20028;-77
2021/04/03 04:45:18;;;;;;;13.52;7.60;;;;;;;;;;5110062;28;20024;-77
2021/04/03 04:47:44;;;;;;;15.77;7.78;;;;;;;;;;5091715;28;20445;-77
2021/04/03 04:50:11;;;;;;;15.40;7.65;;;;;;;;;;5091234;28;20039;-77
2021/04/03 04:52:38;;;;;;;12.32;7.72;;;;;;;;;;5109878;28;20096;-77
2021/04/03 04:55:04;;;;;;;18.10;7.32;;;;;;;;;;5110203;28;20074;-77
2021/04/03 04:57:31;;;;;;;14.77;8.27;;;;;;;;;;5091518;28;20027;-78
2021/04/03 04:59:57;;;;;;;30.65;16.13;;;;;;;;;;5109744;28;20024;-80
2021/04/03 05:02:23;;;;;;;21.58;12.90;;;;;;;;;;5109826;28;20024;-78
2021/04/03 05:04:49;;;;;;;18.85;8.60;;;;;;;;;;5109383;28;20024;-79
2021/04/03 05:07:16;;;;;;;12.27;7.80;;;;;;;;;;5109664;28;20472;-78
2021/04/03 05:09:42;;;;;;;13.48;8.02;;;;;;;;;;5109241;28;20035;-78
2021/04/03 05:12:08;;;;;;;13.00;6.32;;;;;;;;;;5109481;28;20077;-77
2021/04/03 05:14:34;;;;;;;13.80;6.47;;;;;;;;;;5109621;28;20460;-77
2021/04/03 05:17:01;;;;;;;12.65;7.53;;;;;;;;;;5109356;28;20449;-77
2021/04/03 05:20:21;;;;;;;11.88;6.60;;;;;;;;;;5069762;28;20430;-79
2021/04/03 05:22:48;;;;;;;14.75;7.57;;;;;;;;;;5069936;28;20036;-78
2021/04/03 05:25:14;;;;;;;13.55;8.40;;;;;;;;;;5069406;28;20028;-79
2021/04/03 05:29:44;;;;;;;17.45;8.90;;;;;;;;;;5069745;28;20383;-77
2021/04/03 05:32:10;;;;;;;17.30;9.05;;;;;;;;;;5069436;28;20485;-78
2021/04/03 05:34:37;;;;;;;18.23;7.80;;;;;;;;;;5069967;28;20175;-79
2021/04/03 05:37:03;;;;;;;11.52;7.25;;;;;;;;;;5069855;28;20041;-78
2021/04/03 05:39:29;;;;;;;11.43;5.95;;;;;;;;;;5069171;28;20024;-78
2021/04/03 05:41:56;;;;;;;9.25;5.95;;;;;;;;;;5069485;28;20126;-78
2021/04/03 05:44:32;;;;;;;15.45;7.45;;;;;;;;;;5069737;28;20391;-77
2021/04/03 05:46:58;;;;;;;18.45;8.68;;;;;;;;;;5069679;28;20032;-77
2021/04/03 05:50:57;;;;;;;16.02;8.55;;;;;;;;;;5110420;27;20385;-78
2021/04/03 05:53:23;;;;;;;16.05;8.80;;;;;;;;;;5110316;28;20502;-79
2021/04/03 05:55:56;;;;;;;15.65;10.20;;;;;;;;;;5110555;28;20103;-78
2021/04/03 05:58:22;;;;;;;22.67;12.75;;;;;;;;;;5110394;28;20085;-78
2021/04/03 06:00:48;;;;;;;21.08;12.43;;;;;;;;;;5109897;28;20069;-78
2021/04/03 06:03:15;;;;;;;23.38;10.52;;;;;;;;;;5110196;28;20026;-78
2021/04/03 06:05:42;;;;;;;16.95;10.00;;;;;;;;;;5110030;28;20530;-78
2021/04/03 06:08:08;;;;;;;19.25;13.13;;;;;;;;;;5109596;28;20047;-77
2021/04/03 06:10:35;;;;;;;22.20;14.73;;;;;;;;;;5109965;28;20036;-77
2021/04/03 06:13:18;;;;;;;15.48;10.07;;;;;;;;;;5110015;27;20385;-78
2021/04/03 06:17:47;;;;;;;27.45;14.43;;;;;;;;;;5110385;27;20943;-78
2021/04/03 06:23:31;;;;;;;28.25;14.60;;;;;;;;;;5130759;27;20327;-78
2021/04/03 06:27:29;;;;;;;18.02;9.68;;;;;;;;;;5069489;28;20445;-77
2021/04/03 06:29:56;;;;;;;17.15;11.57;;;;;;;;;;5069750;28;20025;-79
2021/04/03 06:32:25;;;;;;;37.92;18.95;;;;;;;;;;5069781;28;20385;-78
2021/04/03 06:34:55;;;;;;;24.50;12.93;;;;;;;;;;5068140;28;20103;-78
2021/04/03 06:37:28;;;;;;;17.45;8.95;;;;;;;;;;5069727;28;20021;-78
2021/04/03 06:39:55;;;;;;;16.95;8.00;;;;;;;;;;5069454;28;20017;-78
2021/04/03 06:42:40;;;;;;;14.43;7.55;;;;;;;;;;5069352;28;20116;-78
2021/04/03 06:47:00;;;;;;;13.63;6.30;;;;;;;;;;5069834;28;20725;-76
2021/04/03 06:49:28;;;;;;;9.50;5.45;;;;;;;;;;5069391;28;20056;-77
2021/04/03 06:51:54;;;;;;;9.63;5.82;;;;;;;;;;5069717;28;20029;-77
2021/04/03 06:54:20;;;;;;;14.02;7.72;;;;;;;;;;5068617;28;20036;-77
2021/04/03 06:56:47;;;;;;;12.50;6.18;;;;;;;;;;5068087;28;20036;-77
2021/04/03 06:59:14;;;;;;;11.02;6.78;;;;;;;;;;5069483;28;20402;-77
2021/04/03 07:01:49;;;;;;;19.55;9.43;;;;;;;;;;5069443;28;20021;-77
2021/04/03 07:05:49;;;;;;;10.27;6.28;;;;;;;;;;5069633;28;20440;-78
2021/04/03 07:09:36;;;;;;;7.85;5.18;;;;;;;;;;5069391;28;20424;-78
2021/04/03 07:14:11;;;;;;;8.95;5.88;;;;;;;;;;5069902;27;20391;-78
2021/04/03 07:16:39;;;;;;;8.15;4.57;;;;;;;;;;5069455;28;20031;-78
2021/04/03 07:19:07;;;;;;;9.48;5.45;;;;;;;;;;5068344;28;20025;-78
2021/04/03 07:21:33;;;;;;;9.30;5.50;;;;;;;;;;5068206;28;20039;-78
2021/04/03 07:24:00;;;;;;;9.35;5.45;;;;;;;;;;5069189;28;20048;-79
2021/04/03 07:26:26;;;;;;;8.50;5.03;;;;;;;;;;5069554;28;20021;-78
2021/04/03 07:28:53;;;;;;;8.77;5.55;;;;;;;;;;5069429;28;20052;-79
2021/04/03 07:31:37;;;;;;;7.72;4.70;;;;;;;;;;5069057;28;20048;-79
2021/04/03 07:34:04;;;;;;;8.70;4.75;;;;;;;;;;5069492;28;20031;-78
2021/04/03 07:36:38;;;;;;;10.95;5.10;;;;;;;;;;5069498;28;20099;-78
2021/04/03 07:40:45;;;;;;;7.75;4.75;;;;;;;;;;5130709;27;20304;-78
2021/04/03 07:43:34;;;;;;;9.30;4.85;;;;;;;;;;5110566;28;20024;-78
2021/04/03 07:46:11;;;;;;;10.05;6.32;;;;;;;;;;5109844;28;20024;-78
2021/04/03 07:48:40;;;;;;;11.65;5.55;;;;;;;;;;5110199;28;20099;-78
2021/04/03 07:51:06;;;;;;;10.52;4.78;;;;;;;;;;5110140;28;20043;-79
2021/04/03 07:53:46;;;;;;;12.40;5.88;;;;;;;;;;5069466;28;20410;-79
2021/04/03 07:56:14;;;;;;;8.82;5.28;;;;;;;;;;5070004;28;20534;-79
2021/04/03 07:59:47;;;;;;;9.85;5.35;;;;;;;;;;5069245;28;20445;-76
2021/04/03 08:02:17;;;;;;;10.77;5.60;;;;;;;;;;5068733;28;20558;-78
2021/04/03 08:04:44;;;;;;;9.18;5.40;;;;;;;;;;5070153;28;20029;-77
2021/04/03 08:07:10;;;;;;;10.73;5.40;;;;;;;;;;5069069;28;20013;-77
2021/04/03 08:11:12;;;;;;;8.43;4.72;;;;;;;;;;5172293;27;20302;-79
2021/04/03 08:13:49;;;;;;;9.82;5.35;;;;;;;;;;5151251;27;20432;-79
2021/04/03 08:16:16;;;;;;;8.77;4.78;;;;;;;;;;5151500;27;20064;-79
2021/04/03 08:23:14;;;;;;;8.50;4.68;;;;;;;;;;5069577;28;20421;-79
2021/04/03 08:27:54;;;;;;;7.75;4.70;;;;;;;;;;5109966;27;20821;-79
2021/04/03 08:30:28;;;;;;;10.07;4.70;;;;;;;;;;5110295;28;20034;-79
2021/04/03 08:33:11;;;;;;;9.15;3.78;;;;;;;;;;5110242;28;20020;-79
2021/04/03 08:35:38;;;;;;;7.20;4.18;;;;;;;;;;5110157;28;20027;-77
2021/04/03 08:38:08;;;;;;;9.40;4.88;;;;;;;;;;5110057;28;20055;-77
2021/04/03 08:40:34;;;;;;;7.55;4.40;;;;;;;;;;5108640;28;20020;-77
2021/04/03 08:44:16;;;;;;;8.32;4.43;;;;;;;;;;5069572;28;20433;-77
2021/04/03 08:46:43;;;;;;;8.00;4.03;;;;;;;;;;5069613;28;20056;-77
2021/04/03 08:49:10;;;;;;;8.38;3.80;;;;;;;;;;5069290;28;20028;-77
2021/04/03 08:53:07;;;;;;;6.97;3.80;;;;;;;;;;5069738;28;20441;-78
2021/04/03 08:55:33;;;;;;;6.93;3.70;;;;;;;;;;5069469;28;20440;-79
2021/04/03 08:58:00;;;;;;;6.25;3.28;;;;;;;;;;5069724;28;20381;-79
2021/04/03 09:02:21;;;;;;;7.43;3.95;;;;;;;;;;5069308;28;20945;-78
2021/04/03 09:04:47;;;;;;;6.43;3.70;;;;;;;;;;5069747;28;20075;-79
2021/04/03 09:07:30;;;;;;;10.07;4.38;;;;;;;;;;5069640;28;20032;-79
2021/04/03 09:10:27;;;;;;;6.10;3.58;;;;;;;;;;5069291;28;20104;-79
2021/04/03 09:12:54;;;;;;;6.18;2.95;;;;;;;;;;5064699;28;20115;-76
2021/04/03 09:15:27;;;;;;;5.47;3.00;;;;;;;;;;5069637;28;20025;-76
2021/04/03 09:17:55;;;;;;;5.57;2.63;;;;;;;;;;5069106;28;20021;-80
2021/04/03 09:23:06;;;;;;;5.57;3.10;;;;;;;;;;5150971;27;20346;-77
2021/04/03 09:25:33;;;;;;;5.30;2.78;;;;;;;;;;5130990;27;20077;-77
2021/04/03 09:28:04;;;;;;;9.13;3.80;;;;;;;;;;5130740;28;20015;-76
2021/04/03 09:30:35;;;;;;;7.63;3.13;;;;;;;;;;5130187;27;20034;-77
2021/04/03 09:33:37;;;;;;;6.43;3.90;;;;;;;;;;5129277;28;20032;-79
2021/04/03 09:36:13;;;;;;;6.85;3.50;;;;;;;;;;5087337;27;20119;-78
2021/04/03 09:38:40;;;;;;;7.70;3.83;;;;;;;;;;5129800;27;20507;-76
2021/04/03 09:41:27;;;;;;;6.25;3.78;;;;;;;;;;5130151;28;20039;-76
2021/04/03 09:44:32;;;;;;;6.55;3.45;;;;;;;;;;5163484;27;20436;-77
2021/04/03 09:47:01;;;;;;;12.75;4.00;;;;;;;;;;5129017;27;20028;-77
2021/04/03 09:49:29;;;;;;;7.07;3.55;;;;;;;;;;5130526;28;20031;-77
2021/04/03 09:51:58;;;;;;;6.55;3.08;;;;;;;;;;5130249;28;20062;-77
2021/04/03 09:54:26;;;;;;;9.32;4.82;;;;;;;;;;5130619;28;20076;-77
2021/04/03 09:56:52;;;;;;;9.77;5.22;;;;;;;;;;5129533;27;20107;-77
2021/04/03 09:59:19;;;;;;;10.85;4.93;;;;;;;;;;5130273;28;20110;-77
2021/04/03 10:01:49;;;;;;;8.32;3.90;;;;;;;;;;5130647;28;20340;-77
2021/04/03 10:04:24;;;;;;;5.60;3.33;;;;;;;;;;5130279;28;20487;-77
2021/04/03 10:08:01;;;;;;;7.30;3.67;;;;;;;;;;5110196;27;20125;-77
2021/04/03 10:10:31;;;;;;;7.22;3.78;;;;;;;;;;5068988;28;20036;-76
2021/04/03 10:12:58;;;;;;;9.38;4.13;;;;;;;;;;5071028;28;20480;-77
2021/04/03 10:15:25;;;;;;;9.05;5.03;;;;;;;;;;5089642;28;20028;-76
2021/04/03 10:17:52;;;;;;;6.75;3.70;;;;;;;;;;5089774;28;20546;-76
2021/04/03 10:20:21;;;;;;;7.50;3.83;;;;;;;;;;5089162;28;20477;-76
2021/04/03 10:22:49;;;;;;;5.70;3.17;;;;;;;;;;5089573;28;20059;-77
2021/04/03 10:25:17;;;;;;;6.95;3.55;;;;;;;;;;5089680;28;20244;-76
2021/04/03 10:27:49;;;;;;;5.82;3.15;;;;;;;;;;5089006;28;20120;-77
2021/04/03 10:30:27;;;;;;;5.25;3.05;;;;;;;;;;5088626;28;20043;-77
2021/04/03 10:32:55;;;;;;;7.30;2.75;;;;;;;;;;5071194;28;20040;-77
2021/04/03 10:35:23;;;;;;;4.72;2.63;;;;;;;;;;5089004;28;20020;-76
2021/04/03 10:40:01;;;;;;;6.07;3.08;;;;;;;;;;5069761;28;20444;-76
2021/04/03 10:42:27;;;;;;;4.25;2.40;;;;;;;;;;5069346;28;20052;-76
2021/04/03 10:44:54;;;;;;;3.55;2.15;;;;;;;;;;5069658;28;20035;-76
2021/04/03 10:47:20;;;;;;;4.20;2.40;;;;;;;;;;5069095;28;20021;-76
2021/04/03 10:49:46;;;;;;;4.90;2.00;;;;;;;;;;5069465;28;20088;-77
2021/04/03 10:52:12;;;;;;;4.88;2.47;;;;;;;;;;5069459;28;20028;-77
2021/04/03 10:54:39;;;;;;;5.93;2.80;;;;;;;;;;5069137;28;20021;-77
2021/04/03 10:57:05;;;;;;;8.82;3.00;;;;;;;;;;5069618;28;20064;-77
2021/04/03 10:59:31;;;;;;;8.23;3.92;;;;;;;;;;5069401;28;20036;-76
2021/04/03 11:01:57;;;;;;;9.02;4.05;;;;;;;;;;5069088;28;20024;-76
2021/04/03 11:04:23;;;;;;;11.43;4.80;;;;;;;;;;5068087;28;20032;-77
2021/04/03 11:06:50;;;;;;;5.97;3.53;;;;;;;;;;5067967;28;20025;-78
2021/04/03 11:09:16;;;;;;;6.93;3.92;;;;;;;;;;5068953;28;20377;-75
2021/04/03 11:11:42;;;;;;;7.88;2.55;;;;;;;;;;5069208;28;20021;-76
2021/04/03 11:14:08;;;;;;;8.30;3.17;;;;;;;;;;5069057;28;20031;-76
2021/04/03 11:16:35;;;;;;;4.47;2.20;;;;;;;;;;5068741;28;20028;-76
2021/04/03 11:19:01;;;;;;;5.40;2.65;;;;;;;;;;5069023;28;20082;-76
2021/04/03 11:21:27;;;;;;;4.78;2.13;;;;;;;;;;5069155;28;20437;-76
2021/04/03 11:23:53;;;;;;;6.40;2.08;;;;;;;;;;5067135;28;20032;-77
2021/04/03 11:26:19;;;;;;;3.35;2.05;;;;;;;;;;5068826;28;20350;-77
2021/04/03 11:28:45;;;;;;;4.57;2.38;;;;;;;;;;5068772;28;20028;-77
2021/04/03 11:31:12;;;;;;;6.82;2.75;;;;;;;;;;5068293;28;20090;-77
2021/04/03 11:33:38;;;;;;;6.53;2.35;;;;;;;;;;5068437;28;20029;-77
2021/04/03 11:36:04;;;;;;;8.27;2.55;;;;;;;;;;5068648;28;20365;-77
2021/04/03 11:38:30;;;;;;;3.70;1.98;;;;;;;;;;5068202;28;20053;-77
2021/04/03 11:40:57;;;;;;;5.60;2.38;;;;;;;;;;5068431;28;20043;-76
2021/04/03 11:43:23;;;;;;;4.30;2.33;;;;;;;;;;5068511;28;20384;-76
2021/04/03 11:45:50;;;;;;;4.90;2.15;;;;;;;;;;5068044;28;20058;-76
2021/04/03 11:48:16;;;;;;;4.07;2.42;;;;;;;;;;5066994;28;20108;-77
2021/04/03 11:50:42;;;;;;;7.10;2.05;;;;;;;;;;5057412;28;20071;-78
2021/04/03 11:53:09;;;;;;;5.50;2.67;;;;;;;;;;5055378;28;20025;-77
2021/04/03 11:55:35;;;;;;;6.38;2.92;;;;;;;;;;5053939;28;20017;-78
2021/04/03 11:58:01;;;;;;;6.50;3.63;;;;;;;;;;5053547;28;20021;-78
2021/04/03 12:00:27;;;;;;;5.32;2.83;;;;;;;;;;5054879;28;20029;-77
2021/04/03 12:02:53;;;;;;;6.30;2.30;;;;;;;;;;5053644;28;20029;-77
2021/04/03 12:05:20;;;;;;;7.65;3.30;;;;;;;;;;5053136;28;20400;-77
2021/04/03 12:07:46;;;;;;;6.63;2.60;;;;;;;;;;5054837;28;20047;-80
2021/04/03 12:10:14;;;;;;;6.88;2.90;;;;;;;;;;5054728;28;20078;-78
2021/04/03 12:12:40;;;;;;;5.03;2.75;;;;;;;;;;5053048;28;20381;-79
2021/04/03 12:15:07;;;;;;;5.32;2.38;;;;;;;;;;5054757;28;20021;-79
2021/04/03 12:17:33;;;;;;;7.38;2.88;;;;;;;;;;5054680;28;20017;-77
2021/04/03 12:19:59;;;;;;;6.75;2.40;;;;;;;;;;5054047;28;20029;-76
2021/04/03 12:22:26;;;;;;;5.72;2.92;;;;;;;;;;5054538;28;20028;-77
2021/04/03 12:24:52;;;;;;;5.60;2.58;;;;;;;;;;5054425;28;20150;-78
2021/04/03 12:27:18;;;;;;;5.57;2.83;;;;;;;;;;5054011;28;20384;-78
2021/04/03 12:29:44;;;;;;;5.55;3.03;;;;;;;;;;5053042;28;20029;-79
2021/04/03 12:32:11;;;;;;;5.63;2.50;;;;;;;;;;5052964;28;20021;-78
2021/04/03 12:34:37;;;;;;;5.28;2.50;;;;;;;;;;5054087;28;20035;-77
2021/04/03 12:37:03;;;;;;;4.95;2.35;;;;;;;;;;5054280;28;20021;-77
2021/04/03 12:39:29;;;;;;;5.38;2.20;;;;;;;;;;5053945;28;20053;-76
2021/04/03 12:41:55;;;;;;;6.72;2.67;;;;;;;;;;5053897;28;20021;-76
2021/04/03 12:44:22;;;;;;;6.28;2.70;;;;;;;;;;5054159;28;20146;-76
2021/04/03 12:46:48;;;;;;;8.30;3.03;;;;;;;;;;5054126;28;20013;-77
2021/04/03 12:49:14;;;;;;;8.80;2.67;;;;;;;;;;5053810;28;20033;-77
2021/04/03 12:51:40;;;;;;;8.32;3.33;;;;;;;;;;5054309;28;20025;-78
2021/04/03 12:54:06;;;;;;;8.18;2.85;;;;;;;;;;5053692;28;20021;-78
2021/04/03 12:56:32;;;;;;;9.75;3.47;;;;;;;;;;5052483;28;20024;-78
2021/04/03 12:58:59;;;;;;;6.43;2.90;;;;;;;;;;5053833;28;20512;-79
2021/04/03 13:01:25;;;;;;;12.73;3.35;;;;;;;;;;5052438;28;20048;-78
2021/04/03 13:03:51;;;;;;;5.28;2.33;;;;;;;;;;5053766;28;20021;-78
2021/04/03 13:06:18;;;;;;;4.95;2.50;;;;;;;;;;5053586;28;20025;-77
2021/04/03 13:08:44;;;;;;;6.05;2.80;;;;;;;;;;5052179;28;20029;-79
2021/04/03 13:11:10;;;;;;;7.65;2.97;;;;;;;;;;5053832;28;20029;-78
2021/04/03 13:13:36;;;;;;;6.13;2.58;;;;;;;;;;5053786;28;20021;-79
2021/04/03 13:16:03;;;;;;;11.07;3.40;;;;;;;;;;5053254;28;20025;-78
2021/04/03 13:18:29;;;;;;;6.15;3.08;;;;;;;;;;5053404;28;20025;-78
2021/04/03 13:20:55;;;;;;;4.75;2.25;;;;;;;;;;5053458;28;20021;-78
2021/04/03 13:23:21;;;;;;;5.93;2.60;;;;;;;;;;5053020;28;20096;-78
2021/04/03 13:27:56;;;;;;;5.88;3.05;;;;;;;;;;5069697;28;20383;-78
2021/04/03 13:30:22;;;;;;;5.30;2.45;;;;;;;;;;5068082;28;20107;-77
2021/04/03 13:32:48;;;;;;;5.38;2.80;;;;;;;;;;5069857;28;20484;-79
2021/04/03 13:35:15;;;;;;;7.95;3.22;;;;;;;;;;5068425;28;20051;-78
2021/04/03 13:37:41;;;;;;;5.55;2.33;;;;;;;;;;5069058;28;20025;-77
2021/04/03 13:40:07;;;;;;;6.85;2.67;;;;;;;;;;5069371;28;20135;-78
2021/04/03 13:42:34;;;;;;;7.55;3.42;;;;;;;;;;5068056;28;20021;-77
2021/04/03 13:45:00;;;;;;;5.20;2.92;;;;;;;;;;5068917;28;20021;-77
2021/04/03 13:47:26;;;;;;;11.20;4.47;;;;;;;;;;5069187;28;20111;-77
2021/04/03 13:49:53;;;;;;;7.53;3.08;;;;;;;;;;5069281;28;20021;-78
2021/04/03 13:54:18;;;;;;;7.03;3.22;;;;;;;;;;5069866;28;20896;-79
2021/04/03 13:56:44;;;;;;;6.45;3.13;;;;;;;;;;5069596;28;20031;-78
2021/04/03 13:59:10;;;;;;;6.07;2.95;;;;;;;;;;5069272;28;20032;-79
2021/04/03 14:01:37;;;;;;;7.97;3.13;;;;;;;;;;5069785;28;20017;-78
2021/04/03 14:04:03;;;;;;;5.55;2.55;;;;;;;;;;5069747;28;20023;-78
2021/04/03 14:06:29;;;;;;;6.60;2.80;;;;;;;;;;5069362;28;20048;-78
2021/04/03 14:08:56;;;;;;;5.75;3.35;;;;;;;;;;5069764;28;20066;-77
2021/04/03 14:11:22;;;;;;;9.85;2.88;;;;;;;;;;5067961;28;20051;-78
2021/04/03 14:13:48;;;;;;;6.63;3.13;;;;;;;;;;5068308;28;20062;-78
2021/04/03 14:16:14;;;;;;;6.88;3.50;;;;;;;;;;5069294;28;20500;-77
2021/04/03 14:18:41;;;;;;;9.90;3.13;;;;;;;;;;5068792;28;20078;-77
2021/04/03 14:21:07;;;;;;;7.43;3.75;;;;;;;;;;5069167;28;20021;-77
2021/04/03 14:23:35;;;;;;;10.20;3.90;;;;;;;;;;5069334;28;20028;-80
2021/04/03 14:26:02;;;;;;;10.63;3.80;;;;;;;;;;5069222;28;20496;-78
2021/04/03 14:28:28;;;;;;;8.05;3.95;;;;;;;;;;5069466;28;20028;-80
2021/04/03 14:30:55;;;;;;;9.82;4.85;;;;;;;;;;5069870;28;20021;-80
2021/04/03 14:33:21;;;;;;;10.15;5.40;;;;;;;;;;5068989;28;20381;-79
2021/04/03 14:35:47;;;;;;;10.43;4.65;;;;;;;;;;5069139;28;20020;-79
2021/04/03 14:38:13;;;;;;;10.65;5.22;;;;;;;;;;5069174;28;20481;-78
2021/04/03 14:40:39;;;;;;;9.10;5.63;;;;;;;;;;5068659;28;20060;-80
2021/04/03 14:43:06;;;;;;;22.77;11.20;;;;;;;;;;5068779;28;20068;-80
2021/04/03 14:45:32;;;;;;;15.60;9.65;;;;;;;;;;5068795;28;20094;-79
2021/04/03 14:47:58;;;;;;;13.23;8.52;;;;;;;;;;5067024;28;20025;-79
2021/04/03 14:50:24;;;;;;;12.20;7.05;;;;;;;;;;5068712;28;20025;-78
2021/04/03 14:52:51;;;;;;;13.02;8.13;;;;;;;;;;5068529;28;20041;-79
2021/04/03 14:55:17;;;;;;;13.48;8.73;;;;;;;;;;5068028;28;20024;-78
2021/04/03 14:57:43;;;;;;;15.18;9.40;;;;;;;;;;5068514;28;20079;-78
2021/04/03 15:00:11;;;;;;;16.63;10.43;;;;;;;;;;5067186;28;20029;-78
2021/04/03 15:02:38;;;;;;;14.85;9.27;;;;;;;;;;5068043;28;20051;-78
2021/04/03 15:05:05;;;;;;;18.40;9.40;;;;;;;;;;5058394;28;20427;-78
2021/04/03 15:08:10;;;;;;;17.38;10.00;;;;;;;;;;5109963;27;20942;-79
2021/04/03 15:10:37;;;;;;;17.35;10.07;;;;;;;;;;5110359;28;20031;-79
2021/04/03 15:13:04;;;;;;;17.55;9.63;;;;;;;;;;5110420;28;20026;-79
2021/04/03 15:15:30;;;;;;;15.13;9.95;;;;;;;;;;5110167;28;20020;-79
2021/04/03 15:17:57;;;;;;;23.88;12.25;;;;;;;;;;5110134;28;20015;-79
2021/04/03 15:20:23;;;;;;;17.02;12.32;;;;;;;;;;5110148;28;20034;-79
2021/04/03 15:22:49;;;;;;;20.45;13.65;;;;;;;;;;5109716;28;20077;-78
2021/04/03 15:25:15;;;;;;;14.57;10.30;;;;;;;;;;5109922;28;20024;-78
2021/04/03 15:29:54;;;;;;;15.90;10.15;;;;;;;;;;5069379;28;20388;-79
2021/04/03 15:34:31;;;;;;;15.93;10.05;;;;;;;;;;5070000;28;20449;-79
2021/04/03 15:37:27;;;;;;;17.67;10.80;;;;;;;;;;5069505;28;20384;-78
2021/04/03 15:39:54;;;;;;;18.40;11.68;;;;;;;;;;5069671;28;20032;-78
2021/04/03 15:44:23;;;;;;;20.17;10.65;;;;;;;;;;5069500;28;20906;-79
2021/04/03 15:46:49;;;;;;;16.85;11.18;;;;;;;;;;5069899;28;20477;-78
2021/04/03 15:49:16;;;;;;;15.63;11.90;;;;;;;;;;5069876;28;20032;-80
2021/04/03 15:53:42;;;;;;;18.50;11.52;;;;;;;;;;5110623;27;20450;-78
2021/04/03 15:56:09;;;;;;;141.70;76.70;;;;;;;;;;5110369;28;20537;-78
2021/04/03 15:58:35;;;;;;;32.40;22.92;;;;;;;;;;5110012;28;20077;-78
2021/04/03 16:01:56;;;;;;;21.40;14.93;;;;;;;;;;5130743;27;20815;-80
2021/04/03 16:06:06;;;;;;;23.25;14.27;;;;;;;;;;5109796;27;20318;-79
2021/04/03 16:08:32;;;;;;;23.05;16.45;;;;;;;;;;5110196;28;20024;-79
2021/04/03 16:12:23;;;;;;;26.02;19.00;;;;;;;;;;5109908;27;20446;-78
2021/04/03 16:14:49;;;;;;;22.75;15.70;;;;;;;;;;5110441;28;20032;-78
2021/04/03 16:17:16;;;;;;;18.25;11.50;;;;;;;;;;5110255;28;20383;-78
2021/04/03 16:19:42;;;;;;;15.68;10.98;;;;;;;;;;5108517;28;20042;-79
2021/04/03 16:22:57;;;;;;;15.13;10.52;;;;;;;;;;5069656;28;20387;-78
2021/04/03 16:25:23;;;;;;;16.63;11.07;;;;;;;;;;5069295;28;20021;-77